sensor_id;sensor_type;location;lat;lon;timestamp;P1;durP1;ratioP1;P2;durP2;ratioP2
12232;SDS011;6179;51.748;8.728;2022-07-25T00:00:08;3.77;;;2.70;;
12232;SDS011;6179;51.748;8.728;2022-07-25T00:06:09;5.17;;;2.67;;
12232;SDS011;6179;51.748;8.728;2022-07-25T00:12:10;3.20;;;2.90;;
12232;SDS011;6179;51.748;8.728;2022-07-25T00:18:11;5.60;;;2.73;;
12232;SDS011;6179;51.748;8.728;2022-07-25T00:24:11;5.30;;;3.30;;
12232;SDS011;6179;51.748;8.728;2022-07-25T00:30:12;3.27;;;2.83;;
12232;SDS011;6179;51.748;8.728;2022-07-25T00:36:13;3.23;;;2.93;;
12232;SDS011;6179;51.748;8.728;2022-07-25T00:42:14;7.37;;;3.23;;
12232;SDS011;6179;51.748;8.728;2022-07-25T00:48:14;5.07;;;3.33;;
12232;SDS011;6179;51.748;8.728;2022-07-25T00:54:15;5.03;;;3.57;;
12232;SDS011;6179;51.748;8.728;2022-07-25T01:00:17;3.57;;;2.80;;
12232;SDS011;6179;51.748;8.728;2022-07-25T01:06:18;2.73;;;2.40;;
12232;SDS011;6179;51.748;8.728;2022-07-25T01:12:19;3.50;;;3.10;;
12232;SDS011;6179;51.748;8.728;2022-07-25T01:18:20;3.80;;;3.40;;
12232;SDS011;6179;51.748;8.728;2022-07-25T01:24:21;3.70;;;3.40;;
12232;SDS011;6179;51.748;8.728;2022-07-25T01:30:22;2.83;;;2.50;;
12232;SDS011;6179;51.748;8.728;2022-07-25T01:36:24;2.50;;;1.80;;
12232;SDS011;6179;51.748;8.728;2022-07-25T01:42:25;3.30;;;3.00;;
12232;SDS011;6179;51.748;8.728;2022-07-25T01:48:28;4.17;;;3.57;;
12232;SDS011;6179;51.748;8.728;2022-07-25T01:54:28;4.53;;;2.47;;
12232;SDS011;6179;51.748;8.728;2022-07-25T02:00:29;6.53;;;4.00;;
12232;SDS011;6179;51.748;8.728;2022-07-25T02:06:30;2.60;;;2.40;;
12232;SDS011;6179;51.748;8.728;2022-07-25T02:12:33;5.60;;;3.00;;
12232;SDS011;6179;51.748;8.728;2022-07-25T02:18:34;2.70;;;2.50;;
12232;SDS011;6179;51.748;8.728;2022-07-25T02:24:34;3.17;;;2.67;;
12232;SDS011;6179;51.748;8.728;2022-07-25T02:30:36;3.13;;;2.87;;
12232;SDS011;6179;51.748;8.728;2022-07-25T02:36:37;6.83;;;2.53;;
12232;SDS011;6179;51.748;8.728;2022-07-25T02:42:37;4.90;;;2.67;;
12232;SDS011;6179;51.748;8.728;2022-07-25T02:48:38;9.10;;;3.77;;
12232;SDS011;6179;51.748;8.728;2022-07-25T02:54:39;3.90;;;2.83;;
12232;SDS011;6179;51.748;8.728;2022-07-25T03:00:39;3.97;;;2.47;;
12232;SDS011;6179;51.748;8.728;2022-07-25T03:06:40;3.20;;;2.90;;
12232;SDS011;6179;51.748;8.728;2022-07-25T03:12:41;3.40;;;2.70;;
12232;SDS011;6179;51.748;8.728;2022-07-25T03:18:43;4.53;;;3.10;;
12232;SDS011;6179;51.748;8.728;2022-07-25T03:24:44;3.77;;;2.97;;
12232;SDS011;6179;51.748;8.728;2022-07-25T03:30:44;4.30;;;3.30;;
12232;SDS011;6179;51.748;8.728;2022-07-25T03:36:45;4.40;;;3.30;;
12232;SDS011;6179;51.748;8.728;2022-07-25T03:42:46;3.60;;;2.90;;
12232;SDS011;6179;51.748;8.728;2022-07-25T03:48:46;3.33;;;3.03;;
12232;SDS011;6179;51.748;8.728;2022-07-25T03:54:47;3.47;;;3.10;;
12232;SDS011;6179;51.748;8.728;2022-07-25T04:00:48;4.60;;;3.20;;
12232;SDS011;6179;51.748;8.728;2022-07-25T04:06:48;4.30;;;2.53;;
12232;SDS011;6179;51.748;8.728;2022-07-25T04:12:49;4.83;;;3.50;;
12232;SDS011;6179;51.748;8.728;2022-07-25T04:18:50;2.77;;;2.53;;
12232;SDS011;6179;51.748;8.728;2022-07-25T04:24:51;3.83;;;2.70;;
12232;SDS011;6179;51.748;8.728;2022-07-25T04:30:51;3.10;;;2.73;;
12232;SDS011;6179;51.748;8.728;2022-07-25T04:36:52;4.20;;;3.77;;
12232;SDS011;6179;51.748;8.728;2022-07-25T04:42:53;4.10;;;3.37;;
12232;SDS011;6179;51.748;8.728;2022-07-25T04:48:53;3.80;;;3.27;;
12232;SDS011;6179;51.748;8.728;2022-07-25T04:54:54;6.97;;;3.17;;
12232;SDS011;6179;51.748;8.728;2022-07-25T05:00:54;4.63;;;3.60;;
12232;SDS011;6179;51.748;8.728;2022-07-25T05:06:55;7.87;;;3.70;;
12232;SDS011;6179;51.748;8.728;2022-07-25T05:12:56;4.90;;;2.87;;
12232;SDS011;6179;51.748;8.728;2022-07-25T05:18:57;3.00;;;2.30;;
12232;SDS011;6179;51.748;8.728;2022-07-25T05:24:57;6.40;;;3.43;;
12232;SDS011;6179;51.748;8.728;2022-07-25T05:31:01;4.60;;;2.70;;
12232;SDS011;6179;51.748;8.728;2022-07-25T05:37:02;4.27;;;3.17;;
12232;SDS011;6179;51.748;8.728;2022-07-25T05:43:02;4.93;;;2.77;;
12232;SDS011;6179;51.748;8.728;2022-07-25T05:49:03;5.43;;;2.37;;
12232;SDS011;6179;51.748;8.728;2022-07-25T05:55:04;4.97;;;3.20;;
12232;SDS011;6179;51.748;8.728;2022-07-25T06:01:10;5.00;;;2.70;;
12232;SDS011;6179;51.748;8.728;2022-07-25T06:07:12;4.33;;;3.20;;
12232;SDS011;6179;51.748;8.728;2022-07-25T06:13:12;4.80;;;2.73;;
12232;SDS011;6179;51.748;8.728;2022-07-25T06:19:13;2.97;;;2.60;;
12232;SDS011;6179;51.748;8.728;2022-07-25T06:25:14;4.70;;;3.50;;
12232;SDS011;6179;51.748;8.728;2022-07-25T06:31:15;3.00;;;2.57;;
12232;SDS011;6179;51.748;8.728;2022-07-25T06:37:16;3.00;;;2.80;;
12232;SDS011;6179;51.748;8.728;2022-07-25T06:43:16;3.57;;;2.43;;
12232;SDS011;6179;51.748;8.728;2022-07-25T06:49:17;4.37;;;2.83;;
12232;SDS011;6179;51.748;8.728;2022-07-25T06:55:18;3.00;;;2.83;;
12232;SDS011;6179;51.748;8.728;2022-07-25T07:01:18;4.47;;;2.87;;
12232;SDS011;6179;51.748;8.728;2022-07-25T07:07:19;3.43;;;3.00;;
12232;SDS011;6179;51.748;8.728;2022-07-25T07:13:20;4.10;;;2.93;;
12232;SDS011;6179;51.748;8.728;2022-07-25T07:19:22;5.63;;;3.00;;
12232;SDS011;6179;51.748;8.728;2022-07-25T07:25:23;2.43;;;2.23;;
12232;SDS011;6179;51.748;8.728;2022-07-25T07:31:24;3.83;;;3.07;;
12232;SDS011;6179;51.748;8.728;2022-07-25T07:37:25;4.60;;;3.27;;
12232;SDS011;6179;51.748;8.728;2022-07-25T07:43:26;5.67;;;5.10;;
12232;SDS011;6179;51.748;8.728;2022-07-25T07:49:28;6.07;;;3.37;;
12232;SDS011;6179;51.748;8.728;2022-07-25T07:55:29;3.77;;;2.93;;
12232;SDS011;6179;51.748;8.728;2022-07-25T08:01:47;3.07;;;2.70;;
12232;SDS011;6179;51.748;8.728;2022-07-25T08:07:47;2.80;;;2.60;;
12232;SDS011;6179;51.748;8.728;2022-07-25T08:13:50;9.47;;;2.80;;
12232;SDS011;6179;51.748;8.728;2022-07-25T08:19:51;7.30;;;2.80;;
12232;SDS011;6179;51.748;8.728;2022-07-25T08:25:52;2.83;;;2.63;;
12232;SDS011;6179;51.748;8.728;2022-07-25T08:31:53;2.67;;;2.20;;
12232;SDS011;6179;51.748;8.728;2022-07-25T08:37:54;2.10;;;1.90;;
12232;SDS011;6179;51.748;8.728;2022-07-25T08:43:54;2.27;;;2.10;;
12232;SDS011;6179;51.748;8.728;2022-07-25T08:49:55;3.50;;;2.77;;
12232;SDS011;6179;51.748;8.728;2022-07-25T08:55:56;4.63;;;2.83;;
12232;SDS011;6179;51.748;8.728;2022-07-25T09:01:58;2.40;;;2.20;;
12232;SDS011;6179;51.748;8.728;2022-07-25T09:14:11;5.37;;;2.67;;
12232;SDS011;6179;51.748;8.728;2022-07-25T09:20:12;4.77;;;2.97;;
12232;SDS011;6179;51.748;8.728;2022-07-25T09:26:13;3.33;;;2.10;;
12232;SDS011;6179;51.748;8.728;2022-07-25T09:32:15;3.53;;;2.60;;
12232;SDS011;6179;51.748;8.728;2022-07-25T09:38:18;4.40;;;2.70;;
12232;SDS011;6179;51.748;8.728;2022-07-25T09:44:20;4.33;;;3.07;;
12232;SDS011;6179;51.748;8.728;2022-07-25T09:50:30;3.17;;;2.63;;
12232;SDS011;6179;51.748;8.728;2022-07-25T09:56:32;3.87;;;2.70;;
12232;SDS011;6179;51.748;8.728;2022-07-25T10:09:13;3.20;;;2.70;;
12232;SDS011;6179;51.748;8.728;2022-07-25T10:15:15;3.57;;;3.13;;
12232;SDS011;6179;51.748;8.728;2022-07-25T10:21:17;2.97;;;2.63;;
12232;SDS011;6179;51.748;8.728;2022-07-25T10:27:22;5.13;;;3.83;;
12232;SDS011;6179;51.748;8.728;2022-07-25T10:33:23;4.53;;;3.00;;
12232;SDS011;6179;51.748;8.728;2022-07-25T10:39:24;9.17;;;2.60;;
12232;SDS011;6179;51.748;8.728;2022-07-25T10:45:25;5.10;;;2.90;;
12232;SDS011;6179;51.748;8.728;2022-07-25T10:51:27;2.87;;;2.67;;
12232;SDS011;6179;51.748;8.728;2022-07-25T10:57:30;3.23;;;3.00;;
12232;SDS011;6179;51.748;8.728;2022-07-25T11:03:31;2.23;;;2.13;;
12232;SDS011;6179;51.748;8.728;2022-07-25T11:09:32;3.13;;;2.93;;
12232;SDS011;6179;51.748;8.728;2022-07-25T11:15:33;7.10;;;3.03;;
12232;SDS011;6179;51.748;8.728;2022-07-25T11:21:42;7.63;;;2.80;;
12232;SDS011;6179;51.748;8.728;2022-07-25T11:27:48;3.87;;;3.57;;
12232;SDS011;6179;51.748;8.728;2022-07-25T11:33:55;3.23;;;3.00;;
12232;SDS011;6179;51.748;8.728;2022-07-25T11:39:56;4.93;;;3.27;;
12232;SDS011;6179;51.748;8.728;2022-07-25T11:52:01;3.17;;;2.80;;
12232;SDS011;6179;51.748;8.728;2022-07-25T11:58:03;3.00;;;2.70;;
12232;SDS011;6179;51.748;8.728;2022-07-25T12:04:14;3.60;;;2.93;;
12232;SDS011;6179;51.748;8.728;2022-07-25T12:10:17;7.40;;;4.00;;
12232;SDS011;6179;51.748;8.728;2022-07-25T12:16:22;4.70;;;3.60;;
12232;SDS011;6179;51.748;8.728;2022-07-25T12:22:23;4.03;;;3.53;;
12232;SDS011;6179;51.748;8.728;2022-07-25T12:28:23;5.13;;;3.87;;
12232;SDS011;6179;51.748;8.728;2022-07-25T12:34:24;5.63;;;4.20;;
12232;SDS011;6179;51.748;8.728;2022-07-25T12:40:25;4.83;;;3.10;;
12232;SDS011;6179;51.748;8.728;2022-07-25T12:46:25;2.90;;;2.50;;
12232;SDS011;6179;51.748;8.728;2022-07-25T12:52:26;3.37;;;2.70;;
12232;SDS011;6179;51.748;8.728;2022-07-25T12:58:27;7.73;;;3.60;;
12232;SDS011;6179;51.748;8.728;2022-07-25T13:04:28;4.70;;;3.57;;
12232;SDS011;6179;51.748;8.728;2022-07-25T13:10:29;4.23;;;3.40;;
12232;SDS011;6179;51.748;8.728;2022-07-25T13:16:30;3.17;;;2.87;;
12232;SDS011;6179;51.748;8.728;2022-07-25T13:22:30;4.37;;;3.97;;
12232;SDS011;6179;51.748;8.728;2022-07-25T13:28:31;4.13;;;3.67;;
12232;SDS011;6179;51.748;8.728;2022-07-25T13:34:32;4.03;;;3.73;;
12232;SDS011;6179;51.748;8.728;2022-07-25T13:40:33;4.07;;;3.77;;
12232;SDS011;6179;51.748;8.728;2022-07-25T13:46:33;3.83;;;3.53;;
12232;SDS011;6179;51.748;8.728;2022-07-25T13:52:34;3.03;;;2.73;;
12232;SDS011;6179;51.748;8.728;2022-07-25T13:58:35;20.43;;;12.50;;
12232;SDS011;6179;51.748;8.728;2022-07-25T14:04:35;8.63;;;3.90;;
12232;SDS011;6179;51.748;8.728;2022-07-25T14:10:36;13.80;;;6.60;;
12232;SDS011;6179;51.748;8.728;2022-07-25T14:16:37;29.73;;;12.80;;
12232;SDS011;6179;51.748;8.728;2022-07-25T14:22:38;41.20;;;14.90;;
12232;SDS011;6179;51.748;8.728;2022-07-25T14:28:41;11.53;;;7.73;;
12232;SDS011;6179;51.748;8.728;2022-07-25T14:34:42;8.93;;;4.70;;
12232;SDS011;6179;51.748;8.728;2022-07-25T14:40:43;17.53;;;6.77;;
12232;SDS011;6179;51.748;8.728;2022-07-25T14:46:43;4.30;;;3.97;;
12232;SDS011;6179;51.748;8.728;2022-07-25T14:52:44;4.30;;;3.37;;
12232;SDS011;6179;51.748;8.728;2022-07-25T14:58:45;3.60;;;2.73;;
12232;SDS011;6179;51.748;8.728;2022-07-25T15:04:45;4.67;;;3.87;;
12232;SDS011;6179;51.748;8.728;2022-07-25T15:10:46;6.50;;;3.03;;
12232;SDS011;6179;51.748;8.728;2022-07-25T15:16:47;3.23;;;2.90;;
12232;SDS011;6179;51.748;8.728;2022-07-25T15:22:47;3.00;;;2.80;;
12232;SDS011;6179;51.748;8.728;2022-07-25T15:28:48;3.20;;;2.90;;
12232;SDS011;6179;51.748;8.728;2022-07-25T15:34:49;4.73;;;2.43;;
12232;SDS011;6179;51.748;8.728;2022-07-25T15:40:50;5.43;;;3.27;;
12232;SDS011;6179;51.748;8.728;2022-07-25T15:46:51;2.70;;;1.90;;
12232;SDS011;6179;51.748;8.728;2022-07-25T15:52:51;3.70;;;2.30;;
12232;SDS011;6179;51.748;8.728;2022-07-25T15:58:52;3.53;;;1.50;;
12232;SDS011;6179;51.748;8.728;2022-07-25T16:04:53;3.37;;;2.07;;
12232;SDS011;6179;51.748;8.728;2022-07-25T16:10:54;2.13;;;1.90;;
12232;SDS011;6179;51.748;8.728;2022-07-25T16:16:54;2.67;;;1.63;;
12232;SDS011;6179;51.748;8.728;2022-07-25T16:22:55;1.80;;;1.63;;
12232;SDS011;6179;51.748;8.728;2022-07-25T16:28:57;2.73;;;2.53;;
12232;SDS011;6179;51.748;8.728;2022-07-25T16:34:58;1.70;;;1.47;;
12232;SDS011;6179;51.748;8.728;2022-07-25T16:40:59;2.03;;;1.83;;
12232;SDS011;6179;51.748;8.728;2022-07-25T16:47:00;1.57;;;1.47;;
12232;SDS011;6179;51.748;8.728;2022-07-25T16:53:01;1.90;;;1.40;;
12232;SDS011;6179;51.748;8.728;2022-07-25T16:59:02;1.53;;;1.43;;
12232;SDS011;6179;51.748;8.728;2022-07-25T17:05:04;11.70;;;2.40;;
12232;SDS011;6179;51.748;8.728;2022-07-25T17:11:05;2.27;;;1.93;;
12232;SDS011;6179;51.748;8.728;2022-07-25T17:17:05;1.10;;;1.00;;
12232;SDS011;6179;51.748;8.728;2022-07-25T17:23:06;1.07;;;0.80;;
12232;SDS011;6179;51.748;8.728;2022-07-25T17:29:07;1.13;;;0.80;;
12232;SDS011;6179;51.748;8.728;2022-07-25T17:35:08;5.13;;;1.10;;
12232;SDS011;6179;51.748;8.728;2022-07-25T17:41:08;1.13;;;0.70;;
12232;SDS011;6179;51.748;8.728;2022-07-25T17:47:09;1.67;;;1.00;;
12232;SDS011;6179;51.748;8.728;2022-07-25T17:53:10;3.13;;;1.57;;
12232;SDS011;6179;51.748;8.728;2022-07-25T17:59:12;1.40;;;1.30;;
12232;SDS011;6179;51.748;8.728;2022-07-25T18:05:13;6.97;;;2.20;;
12232;SDS011;6179;51.748;8.728;2022-07-25T18:11:14;1.20;;;1.10;;
12232;SDS011;6179;51.748;8.728;2022-07-25T18:17:15;1.57;;;1.20;;
12232;SDS011;6179;51.748;8.728;2022-07-25T18:23:16;2.90;;;2.70;;
12232;SDS011;6179;51.748;8.728;2022-07-25T18:29:16;2.13;;;1.67;;
12232;SDS011;6179;51.748;8.728;2022-07-25T18:35:17;2.00;;;1.40;;
12232;SDS011;6179;51.748;8.728;2022-07-25T18:41:21;1.50;;;1.40;;
12232;SDS011;6179;51.748;8.728;2022-07-25T18:47:22;1.67;;;1.47;;
12232;SDS011;6179;51.748;8.728;2022-07-25T18:53:24;4.73;;;1.00;;
12232;SDS011;6179;51.748;8.728;2022-07-25T18:59:25;2.20;;;0.70;;
12232;SDS011;6179;51.748;8.728;2022-07-25T19:05:26;2.43;;;0.97;;
12232;SDS011;6179;51.748;8.728;2022-07-25T19:11:26;3.43;;;1.27;;
12232;SDS011;6179;51.748;8.728;2022-07-25T19:17:27;2.10;;;0.77;;
12232;SDS011;6179;51.748;8.728;2022-07-25T19:23:28;1.40;;;0.70;;
12232;SDS011;6179;51.748;8.728;2022-07-25T19:29:29;0.50;;;0.50;;
12232;SDS011;6179;51.748;8.728;2022-07-25T19:35:30;3.13;;;0.70;;
12232;SDS011;6179;51.748;8.728;2022-07-25T19:41:35;1.03;;;0.73;;
12232;SDS011;6179;51.748;8.728;2022-07-25T19:47:36;8.50;;;1.17;;
12232;SDS011;6179;51.748;8.728;2022-07-25T19:53:36;2.97;;;0.87;;
12232;SDS011;6179;51.748;8.728;2022-07-25T19:59:37;1.37;;;0.70;;
12232;SDS011;6179;51.748;8.728;2022-07-25T20:05:38;2.83;;;1.10;;
12232;SDS011;6179;51.748;8.728;2022-07-25T20:11:39;3.90;;;0.60;;
12232;SDS011;6179;51.748;8.728;2022-07-25T20:17:40;2.40;;;0.60;;
12232;SDS011;6179;51.748;8.728;2022-07-25T20:23:40;5.27;;;0.70;;
12232;SDS011;6179;51.748;8.728;2022-07-25T20:29:41;1.43;;;0.73;;
12232;SDS011;6179;51.748;8.728;2022-07-25T20:35:41;1.43;;;0.60;;
12232;SDS011;6179;51.748;8.728;2022-07-25T20:41:42;2.40;;;0.63;;
12232;SDS011;6179;51.748;8.728;2022-07-25T20:47:43;3.90;;;0.50;;
12232;SDS011;6179;51.748;8.728;2022-07-25T20:53:44;2.77;;;0.50;;
12232;SDS011;6179;51.748;8.728;2022-07-25T20:59:44;1.07;;;0.60;;
12232;SDS011;6179;51.748;8.728;2022-07-25T21:05:45;3.33;;;0.60;;
12232;SDS011;6179;51.748;8.728;2022-07-25T21:11:46;1.87;;;0.80;;
12232;SDS011;6179;51.748;8.728;2022-07-25T21:17:47;1.10;;;1.00;;
12232;SDS011;6179;51.748;8.728;2022-07-25T21:23:48;0.70;;;0.70;;
12232;SDS011;6179;51.748;8.728;2022-07-25T21:29:48;3.77;;;0.93;;
12232;SDS011;6179;51.748;8.728;2022-07-25T21:35:49;1.07;;;0.60;;
12232;SDS011;6179;51.748;8.728;2022-07-25T21:41:50;3.43;;;0.70;;
12232;SDS011;6179;51.748;8.728;2022-07-25T21:47:51;0.73;;;0.73;;
12232;SDS011;6179;51.748;8.728;2022-07-25T21:53:52;4.00;;;0.70;;
12232;SDS011;6179;51.748;8.728;2022-07-25T21:59:53;5.90;;;0.53;;
12232;SDS011;6179;51.748;8.728;2022-07-25T22:05:53;5.27;;;0.70;;
12232;SDS011;6179;51.748;8.728;2022-07-25T22:11:54;0.60;;;0.50;;
12232;SDS011;6179;51.748;8.728;2022-07-25T22:17:55;1.77;;;0.53;;
12232;SDS011;6179;51.748;8.728;2022-07-25T22:23:56;1.10;;;0.50;;
12232;SDS011;6179;51.748;8.728;2022-07-25T22:29:57;3.93;;;0.50;;
12232;SDS011;6179;51.748;8.728;2022-07-25T22:35:57;4.50;;;0.60;;
12232;SDS011;6179;51.748;8.728;2022-07-25T22:41:58;0.50;;;0.50;;
12232;SDS011;6179;51.748;8.728;2022-07-25T22:47:59;1.57;;;0.50;;
12232;SDS011;6179;51.748;8.728;2022-07-25T22:53:59;8.03;;;0.47;;
12232;SDS011;6179;51.748;8.728;2022-07-25T23:00:00;1.23;;;0.40;;
12232;SDS011;6179;51.748;8.728;2022-07-25T23:06:02;2.30;;;0.70;;
12232;SDS011;6179;51.748;8.728;2022-07-25T23:12:03;0.40;;;0.40;;
12232;SDS011;6179;51.748;8.728;2022-07-25T23:18:04;1.30;;;0.40;;
12232;SDS011;6179;51.748;8.728;2022-07-25T23:24:05;2.10;;;0.40;;
12232;SDS011;6179;51.748;8.728;2022-07-25T23:30:06;2.40;;;0.47;;
12232;SDS011;6179;51.748;8.728;2022-07-25T23:36:07;6.07;;;0.43;;
12232;SDS011;6179;51.748;8.728;2022-07-25T23:42:07;0.70;;;0.40;;
12232;SDS011;6179;51.748;8.728;2022-07-25T23:48:08;0.47;;;0.40;;
12232;SDS011;6179;51.748;8.728;2022-07-25T23:54:09;1.30;;;0.50;;
